sensor_id;sensor_type;location;lat;lon;timestamp;pressure;altitude;pressure_sealevel;temperature;humidity
41945;BME280;63122;52.424;13.458;2022-11-20T00:02:10;100458.84;;;-1.67;100.00
41945;BME280;63122;52.424;13.458;2022-11-20T00:04:43;100464.06;;;-1.69;100.00
41945;BME280;63122;52.424;13.458;2022-11-20T00:07:13;100457.09;;;-1.67;100.00
41945;BME280;63122;52.424;13.458;2022-11-20T00:09:43;100451.00;;;-1.66;100.00
41945;BME280;63122;52.424;13.458;2022-11-20T00:12:14;100451.66;;;-1.62;100.00
41945;BME280;63122;52.424;13.458;2022-11-20T00:14:44;100451.47;;;-1.75;100.00
41945;BME280;63122;52.424;13.458;2022-11-20T00:17:14;100456.41;;;-1.70;100.00
41945;BME280;63122;52.424;13.458;2022-11-20T00:19:48;100453.06;;;-1.72;100.00
41945;BME280;63122;52.424;13.458;2022-11-20T00:22:19;100449.72;;;-1.75;100.00
41945;BME280;63122;52.424;13.458;2022-11-20T00:24:49;100451.94;;;-1.67;100.00
41945;BME280;63122;52.424;13.458;2022-11-20T00:27:20;100451.06;;;-1.67;100.00
41945;BME280;63122;52.424;13.458;2022-11-20T00:29:50;100457.91;;;-1.66;100.00
41945;BME280;63122;52.424;13.458;2022-11-20T00:32:21;100457.31;;;-1.71;100.00
41945;BME280;63122;52.424;13.458;2022-11-20T00:34:53;100452.06;;;-1.70;100.00
41945;BME280;63122;52.424;13.458;2022-11-20T00:37:24;100454.50;;;-1.67;100.00
41945;BME280;63122;52.424;13.458;2022-11-20T00:39:55;100451.13;;;-1.69;100.00
41945;BME280;63122;52.424;13.458;2022-11-20T00:42:26;100453.66;;;-1.67;100.00
41945;BME280;63122;52.424;13.458;2022-11-20T00:44:56;100450.22;;;-1.68;100.00
41945;BME280;63122;52.424;13.458;2022-11-20T00:47:29;100452.47;;;-1.78;100.00
41945;BME280;63122;52.424;13.458;2022-11-20T00:50:05;100460.06;;;-1.75;100.00
41945;BME280;63122;52.424;13.458;2022-11-20T00:52:36;100455.88;;;-1.77;100.00
41945;BME280;63122;52.424;13.458;2022-11-20T00:55:07;100448.72;;;-1.72;100.00
41945;BME280;63122;52.424;13.458;2022-11-20T00:57:38;100454.72;;;-1.71;100.00
41945;BME280;63122;52.424;13.458;2022-11-20T01:00:10;100461.19;;;-1.80;100.00
41945;BME280;63122;52.424;13.458;2022-11-20T01:02:44;100450.63;;;-1.76;100.00
41945;BME280;63122;52.424;13.458;2022-11-20T01:05:17;100456.72;;;-1.77;100.00
41945;BME280;63122;52.424;13.458;2022-11-20T01:07:48;100463.31;;;-1.71;100.00
41945;BME280;63122;52.424;13.458;2022-11-20T01:10:20;100467.06;;;-1.77;100.00
41945;BME280;63122;52.424;13.458;2022-11-20T01:12:50;100466.66;;;-1.69;100.00
41945;BME280;63122;52.424;13.458;2022-11-20T01:15:41;100457.53;;;-1.76;100.00
41945;BME280;63122;52.424;13.458;2022-11-20T01:18:11;100451.38;;;-1.74;100.00
41945;BME280;63122;52.424;13.458;2022-11-20T01:20:44;100459.22;;;-1.75;100.00
41945;BME280;63122;52.424;13.458;2022-11-20T01:23:15;100453.75;;;-1.86;100.00
41945;BME280;63122;52.424;13.458;2022-11-20T01:25:46;100450.69;;;-1.77;100.00
41945;BME280;63122;52.424;13.458;2022-11-20T01:28:16;100447.28;;;-1.78;100.00
41945;BME280;63122;52.424;13.458;2022-11-20T01:30:46;100443.78;;;-1.77;100.00
41945;BME280;63122;52.424;13.458;2022-11-20T01:33:17;100447.50;;;-1.82;100.00
41945;BME280;63122;52.424;13.458;2022-11-20T01:35:50;100448.59;;;-1.86;100.00
41945;BME280;63122;52.424;13.458;2022-11-20T01:38:21;100445.53;;;-1.77;100.00
41945;BME280;63122;52.424;13.458;2022-11-20T01:40:55;100452.69;;;-1.82;100.00
41945;BME280;63122;52.424;13.458;2022-11-20T01:43:26;100449.03;;;-1.78;100.00
41945;BME280;63122;52.424;13.458;2022-11-20T01:46:18;100444.59;;;-1.76;100.00
41945;BME280;63122;52.424;13.458;2022-11-20T01:48:52;100442.41;;;-1.84;100.00
41945;BME280;63122;52.424;13.458;2022-11-20T01:51:29;100440.88;;;-1.88;100.00
41945;BME280;63122;52.424;13.458;2022-11-20T01:54:05;100451.00;;;-1.83;100.00
41945;BME280;63122;52.424;13.458;2022-11-20T01:56:39;100445.75;;;-1.82;100.00
41945;BME280;63122;52.424;13.458;2022-11-20T01:59:13;100441.81;;;-1.89;100.00
41945;BME280;63122;52.424;13.458;2022-11-20T02:01:46;100438.91;;;-1.83;100.00
41945;BME280;63122;52.424;13.458;2022-11-20T02:04:17;100437.94;;;-1.80;100.00
41945;BME280;63122;52.424;13.458;2022-11-20T02:06:53;100437.78;;;-1.95;100.00
41945;BME280;63122;52.424;13.458;2022-11-20T02:09:27;100439.06;;;-1.86;100.00
41945;BME280;63122;52.424;13.458;2022-11-20T02:11:58;100434.19;;;-1.92;100.00
41945;BME280;63122;52.424;13.458;2022-11-20T02:14:29;100427.50;;;-1.96;99.95
41945;BME280;63122;52.424;13.458;2022-11-20T02:16:57;100424.56;;;-1.89;100.00
41945;BME280;63122;52.424;13.458;2022-11-20T02:19:29;100424.94;;;-1.96;99.47
41945;BME280;63122;52.424;13.458;2022-11-20T02:22:07;100414.81;;;-1.83;100.00
41945;BME280;63122;52.424;13.458;2022-11-20T02:24:41;100419.81;;;-1.98;99.73
41945;BME280;63122;52.424;13.458;2022-11-20T02:27:15;100416.31;;;-1.97;99.84
41945;BME280;63122;52.424;13.458;2022-11-20T02:29:50;100411.78;;;-1.92;99.69
41945;BME280;63122;52.424;13.458;2022-11-20T02:32:23;100414.38;;;-1.92;99.40
41945;BME280;63122;52.424;13.458;2022-11-20T02:34:54;100414.28;;;-1.90;100.00
41945;BME280;63122;52.424;13.458;2022-11-20T02:37:32;100415.03;;;-1.88;100.00
41945;BME280;63122;52.424;13.458;2022-11-20T02:40:08;100416.69;;;-1.87;99.88
41945;BME280;63122;52.424;13.458;2022-11-20T02:42:38;100419.59;;;-1.93;98.73
41945;BME280;63122;52.424;13.458;2022-11-20T02:45:09;100407.53;;;-1.93;99.00
41945;BME280;63122;52.424;13.458;2022-11-20T02:47:39;100402.69;;;-1.83;100.00
41945;BME280;63122;52.424;13.458;2022-11-20T02:50:10;100409.41;;;-1.96;99.12
41945;BME280;63122;52.424;13.458;2022-11-20T02:52:40;100404.41;;;-1.99;98.74
41945;BME280;63122;52.424;13.458;2022-11-20T02:55:13;100405.00;;;-1.94;99.12
41945;BME280;63122;52.424;13.458;2022-11-20T02:57:43;100403.25;;;-1.94;98.92
41945;BME280;63122;52.424;13.458;2022-11-20T03:00:13;100402.47;;;-1.96;98.95
41945;BME280;63122;52.424;13.458;2022-11-20T03:02:43;100393.59;;;-1.90;99.84
41945;BME280;63122;52.424;13.458;2022-11-20T03:05:14;100398.16;;;-1.95;98.43
41945;BME280;63122;52.424;13.458;2022-11-20T03:07:44;100403.25;;;-1.94;98.21
41945;BME280;63122;52.424;13.458;2022-11-20T03:10:17;100397.56;;;-2.00;97.21
41945;BME280;63122;52.424;13.458;2022-11-20T03:12:47;100398.47;;;-2.01;98.91
41945;BME280;63122;52.424;13.458;2022-11-20T03:15:17;100404.09;;;-1.93;99.45
41945;BME280;63122;52.424;13.458;2022-11-20T03:17:47;100391.31;;;-1.96;98.87
41945;BME280;63122;52.424;13.458;2022-11-20T03:20:17;100387.66;;;-1.92;99.06
41945;BME280;63122;52.424;13.458;2022-11-20T03:22:47;100393.22;;;-2.00;98.82
41945;BME280;63122;52.424;13.458;2022-11-20T03:25:20;100389.50;;;-1.94;99.81
41945;BME280;63122;52.424;13.458;2022-11-20T03:27:50;100384.31;;;-1.94;99.25
41945;BME280;63122;52.424;13.458;2022-11-20T03:30:21;100384.47;;;-1.97;99.53
41945;BME280;63122;52.424;13.458;2022-11-20T03:32:56;100389.13;;;-2.04;98.26
41945;BME280;63122;52.424;13.458;2022-11-20T03:35:27;100385.00;;;-2.08;98.29
41945;BME280;63122;52.424;13.458;2022-11-20T03:37:57;100389.97;;;-2.04;98.47
41945;BME280;63122;52.424;13.458;2022-11-20T03:40:30;100383.13;;;-2.05;98.54
41945;BME280;63122;52.424;13.458;2022-11-20T03:43:00;100388.13;;;-2.01;98.26
41945;BME280;63122;52.424;13.458;2022-11-20T03:45:30;100391.09;;;-2.09;97.12
41945;BME280;63122;52.424;13.458;2022-11-20T03:48:00;100384.31;;;-2.12;97.46
41945;BME280;63122;52.424;13.458;2022-11-20T03:50:31;100386.25;;;-2.15;97.80
41945;BME280;63122;52.424;13.458;2022-11-20T03:53:01;100385.06;;;-2.10;98.35
41945;BME280;63122;52.424;13.458;2022-11-20T03:55:33;100389.19;;;-2.06;98.46
41945;BME280;63122;52.424;13.458;2022-11-20T03:58:04;100393.69;;;-2.09;98.11
41945;BME280;63122;52.424;13.458;2022-11-20T04:00:34;100385.06;;;-2.10;98.14
41945;BME280;63122;52.424;13.458;2022-11-20T04:03:04;100381.88;;;-2.15;97.99
41945;BME280;63122;52.424;13.458;2022-11-20T04:05:35;100386.63;;;-2.06;99.35
41945;BME280;63122;52.424;13.458;2022-11-20T04:08:05;100376.88;;;-2.00;98.45
41945;BME280;63122;52.424;13.458;2022-11-20T04:10:38;100374.03;;;-1.96;99.64
41945;BME280;63122;52.424;13.458;2022-11-20T04:13:08;100371.38;;;-1.94;98.22
41945;BME280;63122;52.424;13.458;2022-11-20T04:15:38;100374.13;;;-1.97;98.99
41945;BME280;63122;52.424;13.458;2022-11-20T04:18:08;100367.34;;;-2.00;98.24
41945;BME280;63122;52.424;13.458;2022-11-20T04:20:39;100378.00;;;-2.06;97.61
41945;BME280;63122;52.424;13.458;2022-11-20T04:23:09;100385.63;;;-2.03;97.85
41945;BME280;63122;52.424;13.458;2022-11-20T04:25:42;100378.31;;;-2.12;97.35
41945;BME280;63122;52.424;13.458;2022-11-20T04:28:12;100386.47;;;-2.03;98.12
41945;BME280;63122;52.424;13.458;2022-11-20T04:30:43;100380.28;;;-2.00;98.09
41945;BME280;63122;52.424;13.458;2022-11-20T04:33:13;100381.59;;;-2.09;97.30
41945;BME280;63122;52.424;13.458;2022-11-20T04:35:45;100373.38;;;-1.99;97.83
41945;BME280;63122;52.424;13.458;2022-11-20T04:38:16;100377.94;;;-2.05;97.83
41945;BME280;63122;52.424;13.458;2022-11-20T04:40:49;100373.38;;;-1.99;98.23
41945;BME280;63122;52.424;13.458;2022-11-20T04:43:19;100372.38;;;-1.97;98.41
41945;BME280;63122;52.424;13.458;2022-11-20T04:45:50;100368.28;;;-2.01;98.27
41945;BME280;63122;52.424;13.458;2022-11-20T04:48:20;100368.38;;;-2.03;98.99
41945;BME280;63122;52.424;13.458;2022-11-20T04:50:51;100364.72;;;-1.98;98.87
41945;BME280;63122;52.424;13.458;2022-11-20T04:53:22;100364.00;;;-2.02;98.40
41945;BME280;63122;52.424;13.458;2022-11-20T04:55:59;100361.38;;;-2.00;98.24
41945;BME280;63122;52.424;13.458;2022-11-20T04:58:29;100361.44;;;-2.02;97.56
41945;BME280;63122;52.424;13.458;2022-11-20T05:01:01;100362.66;;;-1.92;98.37
41945;BME280;63122;52.424;13.458;2022-11-20T05:03:31;100355.88;;;-1.94;98.29
41945;BME280;63122;52.424;13.458;2022-11-20T05:06:09;100353.22;;;-1.93;98.34
41945;BME280;63122;52.424;13.458;2022-11-20T05:08:40;100358.06;;;-1.86;97.25
41945;BME280;63122;52.424;13.458;2022-11-20T05:11:14;100354.28;;;-1.97;96.48
41945;BME280;63122;52.424;13.458;2022-11-20T05:13:44;100346.38;;;-1.94;97.52
41945;BME280;63122;52.424;13.458;2022-11-20T05:16:16;100343.88;;;-1.95;97.34
41945;BME280;63122;52.424;13.458;2022-11-20T05:18:47;100335.34;;;-1.97;97.11
41945;BME280;63122;52.424;13.458;2022-11-20T05:21:18;100335.94;;;-1.92;97.50
41945;BME280;63122;52.424;13.458;2022-11-20T05:23:48;100339.44;;;-1.93;97.40
41945;BME280;63122;52.424;13.458;2022-11-20T05:26:21;100340.41;;;-1.96;97.24
41945;BME280;63122;52.424;13.458;2022-11-20T05:28:52;100329.94;;;-1.93;97.08
41945;BME280;63122;52.424;13.458;2022-11-20T05:31:23;100330.88;;;-1.94;97.09
41945;BME280;63122;52.424;13.458;2022-11-20T05:33:55;100335.88;;;-1.91;96.86
41945;BME280;63122;52.424;13.458;2022-11-20T05:36:26;100344.44;;;-1.90;97.40
41945;BME280;63122;52.424;13.458;2022-11-20T05:38:56;100337.63;;;-1.91;97.81
41945;BME280;63122;52.424;13.458;2022-11-20T05:41:32;100338.31;;;-1.88;99.00
41945;BME280;63122;52.424;13.458;2022-11-20T05:44:03;100345.38;;;-1.91;98.50
41945;BME280;63122;52.424;13.458;2022-11-20T05:46:33;100341.13;;;-1.92;98.27
41945;BME280;63122;52.424;13.458;2022-11-20T05:49:03;100336.03;;;-1.94;98.41
41945;BME280;63122;52.424;13.458;2022-11-20T05:51:34;100336.63;;;-1.89;98.44
41945;BME280;63122;52.424;13.458;2022-11-20T05:54:04;100328.94;;;-1.90;98.33
41945;BME280;63122;52.424;13.458;2022-11-20T05:56:37;100328.34;;;-1.95;98.05
41945;BME280;63122;52.424;13.458;2022-11-20T05:59:07;100329.63;;;-1.86;98.16
41945;BME280;63122;52.424;13.458;2022-11-20T06:01:38;100324.63;;;-1.90;98.32
41945;BME280;63122;52.424;13.458;2022-11-20T06:04:08;100325.59;;;-1.92;98.07
41945;BME280;63122;52.424;13.458;2022-11-20T06:06:38;100325.69;;;-1.94;98.12
41945;BME280;63122;52.424;13.458;2022-11-20T06:09:08;100324.69;;;-1.91;98.19
41945;BME280;63122;52.424;13.458;2022-11-20T06:11:41;100328.13;;;-1.91;98.42
41945;BME280;63122;52.424;13.458;2022-11-20T06:14:11;100333.13;;;-1.88;98.47
41945;BME280;63122;52.424;13.458;2022-11-20T06:16:42;100327.28;;;-1.91;97.89
41945;BME280;63122;52.424;13.458;2022-11-20T06:19:12;100321.13;;;-1.89;98.35
41945;BME280;63122;52.424;13.458;2022-11-20T06:21:42;100322.94;;;-1.91;98.15
41945;BME280;63122;52.424;13.458;2022-11-20T06:24:13;100321.03;;;-1.87;97.36
41945;BME280;63122;52.424;13.458;2022-11-20T06:26:46;100324.63;;;-1.90;97.57
41945;BME280;63122;52.424;13.458;2022-11-20T06:29:16;100324.91;;;-1.96;97.43
41945;BME280;63122;52.424;13.458;2022-11-20T06:31:47;100329.84;;;-1.91;97.77
41945;BME280;63122;52.424;13.458;2022-11-20T06:34:17;100334.09;;;-1.90;98.76
41945;BME280;63122;52.424;13.458;2022-11-20T06:36:47;100329.03;;;-1.92;97.97
41945;BME280;63122;52.424;13.458;2022-11-20T06:39:17;100330.09;;;-1.96;97.71
41945;BME280;63122;52.424;13.458;2022-11-20T06:41:51;100332.66;;;-1.96;97.66
41945;BME280;63122;52.424;13.458;2022-11-20T06:44:25;100330.78;;;-1.92;98.76
41945;BME280;63122;52.424;13.458;2022-11-20T06:46:55;100329.19;;;-1.95;98.25
41945;BME280;63122;52.424;13.458;2022-11-20T06:49:25;100325.75;;;-1.95;98.15
41945;BME280;63122;52.424;13.458;2022-11-20T06:51:56;100321.28;;;-1.92;98.49
41945;BME280;63122;52.424;13.458;2022-11-20T06:54:25;100326.44;;;-1.92;98.49
41945;BME280;63122;52.424;13.458;2022-11-20T06:56:58;100331.09;;;-1.98;97.92
41945;BME280;63122;52.424;13.458;2022-11-20T06:59:28;100331.91;;;-1.98;98.11
41945;BME280;63122;52.424;13.458;2022-11-20T07:01:59;100318.41;;;-2.03;97.25
41945;BME280;63122;52.424;13.458;2022-11-20T07:04:29;100327.22;;;-2.07;98.03
41945;BME280;63122;52.424;13.458;2022-11-20T07:06:59;100330.41;;;-2.02;98.08
41945;BME280;63122;52.424;13.458;2022-11-20T07:09:29;100328.91;;;-2.06;98.57
41945;BME280;63122;52.424;13.458;2022-11-20T07:12:02;100327.31;;;-2.09;97.61
41945;BME280;63122;52.424;13.458;2022-11-20T07:14:32;100322.59;;;-2.00;98.62
41945;BME280;63122;52.424;13.458;2022-11-20T07:17:03;100317.88;;;-2.10;98.28
41945;BME280;63122;52.424;13.458;2022-11-20T07:19:33;100323.88;;;-2.09;97.79
41945;BME280;63122;52.424;13.458;2022-11-20T07:22:03;100321.81;;;-2.03;97.76
41945;BME280;63122;52.424;13.458;2022-11-20T07:24:33;100319.78;;;-2.13;97.68
41945;BME280;63122;52.424;13.458;2022-11-20T07:27:12;100316.28;;;-2.12;97.19
41945;BME280;63122;52.424;13.458;2022-11-20T07:29:42;100319.03;;;-2.15;96.68
41945;BME280;63122;52.424;13.458;2022-11-20T07:32:12;100310.53;;;-2.18;96.41
41945;BME280;63122;52.424;13.458;2022-11-20T07:34:42;100316.44;;;-2.15;97.29
41945;BME280;63122;52.424;13.458;2022-11-20T07:37:12;100315.84;;;-2.21;96.63
41945;BME280;63122;52.424;13.458;2022-11-20T07:39:42;100313.56;;;-2.27;96.62
41945;BME280;63122;52.424;13.458;2022-11-20T07:42:15;100317.06;;;-2.28;96.25
41945;BME280;63122;52.424;13.458;2022-11-20T07:44:45;100321.25;;;-2.25;96.75
41945;BME280;63122;52.424;13.458;2022-11-20T07:47:16;100317.00;;;-2.26;96.55
41945;BME280;63122;52.424;13.458;2022-11-20T07:49:45;100314.84;;;-2.18;96.91
41945;BME280;63122;52.424;13.458;2022-11-20T07:52:16;100316.66;;;-2.20;96.36
41945;BME280;63122;52.424;13.458;2022-11-20T07:54:46;100310.81;;;-2.24;95.82
41945;BME280;63122;52.424;13.458;2022-11-20T07:57:19;100312.56;;;-2.24;96.56
41945;BME280;63122;52.424;13.458;2022-11-20T07:59:54;100308.91;;;-2.20;97.39
41945;BME280;63122;52.424;13.458;2022-11-20T08:02:24;100305.84;;;-2.11;96.97
41945;BME280;63122;52.424;13.458;2022-11-20T08:04:55;100308.75;;;-1.99;97.31
41945;BME280;63122;52.424;13.458;2022-11-20T08:07:25;100302.22;;;-2.07;97.25
41945;BME280;63122;52.424;13.458;2022-11-20T08:09:56;100309.88;;;-2.05;96.79
41945;BME280;63122;52.424;13.458;2022-11-20T08:12:29;100304.13;;;-2.10;96.44
41945;BME280;63122;52.424;13.458;2022-11-20T08:15:12;100311.72;;;-2.07;96.90
41945;BME280;63122;52.424;13.458;2022-11-20T08:17:42;100303.19;;;-2.09;97.49
41945;BME280;63122;52.424;13.458;2022-11-20T08:20:34;100303.91;;;-2.06;97.41
41945;BME280;63122;52.424;13.458;2022-11-20T08:23:06;100298.63;;;-2.04;96.98
41945;BME280;63122;52.424;13.458;2022-11-20T08:25:37;100302.72;;;-2.00;96.73
41945;BME280;63122;52.424;13.458;2022-11-20T08:28:10;100310.56;;;-2.01;96.58
41945;BME280;63122;52.424;13.458;2022-11-20T08:30:48;100307.06;;;-2.00;97.20
41945;BME280;63122;52.424;13.458;2022-11-20T08:33:18;100296.63;;;-1.99;97.04
41945;BME280;63122;52.424;13.458;2022-11-20T08:35:48;100304.66;;;-2.04;96.08
41945;BME280;63122;52.424;13.458;2022-11-20T08:38:18;100302.56;;;-1.97;96.56
41945;BME280;63122;52.424;13.458;2022-11-20T08:40:48;100311.13;;;-2.12;94.92
41945;BME280;63122;52.424;13.458;2022-11-20T08:43:34;100303.13;;;-2.08;95.19
41945;BME280;63122;52.424;13.458;2022-11-20T08:46:04;100303.47;;;-1.98;95.18
41945;BME280;63122;52.424;13.458;2022-11-20T08:48:34;100315.75;;;-2.01;95.08
41945;BME280;63122;52.424;13.458;2022-11-20T08:51:05;100300.56;;;-2.08;94.33
41945;BME280;63122;52.424;13.458;2022-11-20T08:53:35;100296.38;;;-2.10;94.03
41945;BME280;63122;52.424;13.458;2022-11-20T08:56:06;100291.34;;;-2.13;93.85
41945;BME280;63122;52.424;13.458;2022-11-20T08:58:39;100295.38;;;-2.08;94.17
41945;BME280;63122;52.424;13.458;2022-11-20T09:01:29;100287.09;;;-2.14;93.48
41945;BME280;63122;52.424;13.458;2022-11-20T09:04:00;100293.38;;;-2.03;94.70
41945;BME280;63122;52.424;13.458;2022-11-20T09:06:31;100292.38;;;-2.00;93.61
41945;BME280;63122;52.424;13.458;2022-11-20T09:09:02;100302.28;;;-2.08;93.82
41945;BME280;63122;52.424;13.458;2022-11-20T09:11:34;100294.31;;;-2.04;94.25
41945;BME280;63122;52.424;13.458;2022-11-20T09:14:08;100299.06;;;-1.96;94.48
41945;BME280;63122;52.424;13.458;2022-11-20T09:16:38;100310.03;;;-2.08;93.45
41945;BME280;63122;52.424;13.458;2022-11-20T09:19:11;100303.13;;;-2.08;93.20
41945;BME280;63122;52.424;13.458;2022-11-20T09:22:03;100302.84;;;-2.19;92.42
41945;BME280;63122;52.424;13.458;2022-11-20T09:24:34;100300.84;;;-2.14;93.54
41945;BME280;63122;52.424;13.458;2022-11-20T09:27:06;100306.88;;;-2.13;92.80
41945;BME280;63122;52.424;13.458;2022-11-20T09:29:39;100294.00;;;-2.15;92.81
41945;BME280;63122;52.424;13.458;2022-11-20T09:32:09;100316.34;;;-2.14;92.00
41945;BME280;63122;52.424;13.458;2022-11-20T09:34:39;100308.16;;;-2.05;92.78
41945;BME280;63122;52.424;13.458;2022-11-20T09:37:09;100302.28;;;-2.08;92.03
41945;BME280;63122;52.424;13.458;2022-11-20T09:39:40;100302.94;;;-2.21;91.55
41945;BME280;63122;52.424;13.458;2022-11-20T09:42:22;100289.16;;;-2.21;92.09
41945;BME280;63122;52.424;13.458;2022-11-20T09:48:11;100296.69;;;-2.17;91.99
41945;BME280;63122;52.424;13.458;2022-11-20T09:50:51;100290.13;;;-2.06;92.17
41945;BME280;63122;52.424;13.458;2022-11-20T09:53:30;100291.03;;;-2.07;92.57
41945;BME280;63122;52.424;13.458;2022-11-20T09:56:03;100291.94;;;-2.08;92.02
41945;BME280;63122;52.424;13.458;2022-11-20T09:58:40;100294.94;;;-1.82;92.65
41945;BME280;63122;52.424;13.458;2022-11-20T10:01:17;100293.59;;;-1.90;91.99
41945;BME280;63122;52.424;13.458;2022-11-20T10:03:57;100281.97;;;-1.98;92.33
41945;BME280;63122;52.424;13.458;2022-11-20T10:06:30;100286.97;;;-1.95;92.14
41945;BME280;63122;52.424;13.458;2022-11-20T10:09:14;100273.69;;;-2.05;91.81
41945;BME280;63122;52.424;13.458;2022-11-20T10:11:59;100276.88;;;-2.00;92.08
41945;BME280;63122;52.424;13.458;2022-11-20T10:14:38;100276.56;;;-1.94;92.30
41945;BME280;63122;52.424;13.458;2022-11-20T10:17:25;100271.47;;;-1.95;92.49
41945;BME280;63122;52.424;13.458;2022-11-20T10:20:14;100273.19;;;-1.96;92.22
41945;BME280;63122;52.424;13.458;2022-11-20T10:22:58;100271.41;;;-1.94;92.20
41945;BME280;63122;52.424;13.458;2022-11-20T10:25:38;100274.75;;;-1.92;91.68
41945;BME280;63122;52.424;13.458;2022-11-20T10:28:29;100277.63;;;-1.98;91.98
41945;BME280;63122;52.424;13.458;2022-11-20T10:31:09;100273.66;;;-1.88;92.28
41945;BME280;63122;52.424;13.458;2022-11-20T10:33:44;100268.66;;;-1.91;92.27
41945;BME280;63122;52.424;13.458;2022-11-20T10:36:43;100273.50;;;-1.84;92.32
41945;BME280;63122;52.424;13.458;2022-11-20T10:39:18;100270.38;;;-1.91;92.70
41945;BME280;63122;52.424;13.458;2022-11-20T10:41:52;100260.41;;;-1.81;93.52
41945;BME280;63122;52.424;13.458;2022-11-20T10:44:26;100261.53;;;-1.87;93.25
41945;BME280;63122;52.424;13.458;2022-11-20T10:47:13;100254.13;;;-1.77;94.38
41945;BME280;63122;52.424;13.458;2022-11-20T10:49:47;100252.13;;;-1.72;94.11
41945;BME280;63122;52.424;13.458;2022-11-20T10:52:26;100249.13;;;-1.64;93.32
41945;BME280;63122;52.424;13.458;2022-11-20T10:55:07;100252.97;;;-1.71;93.31
41945;BME280;63122;52.424;13.458;2022-11-20T10:57:52;100246.88;;;-1.70;93.27
41945;BME280;63122;52.424;13.458;2022-11-20T11:00:24;100255.22;;;-1.65;94.38
41945;BME280;63122;52.424;13.458;2022-11-20T11:02:54;100248.91;;;-1.60;93.46
41945;BME280;63122;52.424;13.458;2022-11-20T11:05:37;100258.06;;;-1.70;93.25
41945;BME280;63122;52.424;13.458;2022-11-20T11:08:14;100244.97;;;-1.67;94.22
41945;BME280;63122;52.424;13.458;2022-11-20T11:10:47;100250.28;;;-1.54;94.71
41945;BME280;63122;52.424;13.458;2022-11-20T11:13:22;100247.13;;;-1.59;94.53
41945;BME280;63122;52.424;13.458;2022-11-20T11:15:54;100246.03;;;-1.55;93.52
41945;BME280;63122;52.424;13.458;2022-11-20T11:18:26;100226.13;;;-1.53;94.13
41945;BME280;63122;52.424;13.458;2022-11-20T11:20:59;100232.03;;;-1.51;94.69
41945;BME280;63122;52.424;13.458;2022-11-20T11:23:35;100236.94;;;-1.46;95.46
41945;BME280;63122;52.424;13.458;2022-11-20T11:26:17;100233.03;;;-1.53;94.87
41945;BME280;63122;52.424;13.458;2022-11-20T11:28:53;100231.03;;;-1.48;94.99
41945;BME280;63122;52.424;13.458;2022-11-20T11:31:25;100236.28;;;-1.34;95.67
41945;BME280;63122;52.424;13.458;2022-11-20T11:34:04;100226.91;;;-1.36;92.77
41945;BME280;63122;52.424;13.458;2022-11-20T11:36:35;100229.84;;;-1.26;92.24
41945;BME280;63122;52.424;13.458;2022-11-20T11:39:18;100234.00;;;-1.08;91.00
41945;BME280;63122;52.424;13.458;2022-11-20T11:41:51;100219.19;;;-1.06;90.61
41945;BME280;63122;52.424;13.458;2022-11-20T11:44:24;100225.47;;;-1.10;90.98
41945;BME280;63122;52.424;13.458;2022-11-20T11:47:23;100212.94;;;-0.87;88.67
41945;BME280;63122;52.424;13.458;2022-11-20T11:50:14;100214.75;;;-1.04;89.66
41945;BME280;63122;52.424;13.458;2022-11-20T11:52:51;100222.78;;;-1.08;90.36
41945;BME280;63122;52.424;13.458;2022-11-20T11:55:31;100220.00;;;-1.05;90.42
41945;BME280;63122;52.424;13.458;2022-11-20T11:58:34;100216.63;;;-0.91;90.82
41945;BME280;63122;52.424;13.458;2022-11-20T12:01:20;100210.72;;;-0.93;90.58
41945;BME280;63122;52.424;13.458;2022-11-20T12:04:00;100211.75;;;-0.96;88.90
41945;BME280;63122;52.424;13.458;2022-11-20T12:06:36;100207.13;;;-0.91;89.52
41945;BME280;63122;52.424;13.458;2022-11-20T12:09:10;100208.00;;;-0.76;90.30
41945;BME280;63122;52.424;13.458;2022-11-20T12:11:47;100203.81;;;-0.78;89.21
41945;BME280;63122;52.424;13.458;2022-11-20T12:14:22;100205.88;;;-0.69;90.39
41945;BME280;63122;52.424;13.458;2022-11-20T12:16:55;100205.09;;;-0.71;87.72
41945;BME280;63122;52.424;13.458;2022-11-20T12:19:29;100209.03;;;-0.64;88.01
41945;BME280;63122;52.424;13.458;2022-11-20T12:22:05;100203.09;;;-0.51;88.50
41945;BME280;63122;52.424;13.458;2022-11-20T12:24:53;100196.38;;;-0.54;86.89
41945;BME280;63122;52.424;13.458;2022-11-20T12:27:43;100198.13;;;-0.40;88.43
41945;BME280;63122;52.424;13.458;2022-11-20T12:30:15;100192.75;;;-0.37;86.01
41945;BME280;63122;52.424;13.458;2022-11-20T12:33:02;100198.88;;;-0.38;87.12
41945;BME280;63122;52.424;13.458;2022-11-20T12:36:07;100189.78;;;-0.31;86.46
41945;BME280;63122;52.424;13.458;2022-11-20T12:41:54;100194.22;;;-0.33;86.29
41945;BME280;63122;52.424;13.458;2022-11-20T12:45:07;100190.63;;;-0.16;86.65
41945;BME280;63122;52.424;13.458;2022-11-20T12:48:18;100188.59;;;-0.25;86.43
41945;BME280;63122;52.424;13.458;2022-11-20T12:51:06;100187.38;;;-0.34;86.50
41945;BME280;63122;52.424;13.458;2022-11-20T12:53:48;100183.41;;;-0.39;86.97
41945;BME280;63122;52.424;13.458;2022-11-20T12:56:31;100195.06;;;-0.47;87.50
41945;BME280;63122;52.424;13.458;2022-11-20T12:59:16;100184.88;;;-0.50;88.05
41945;BME280;63122;52.424;13.458;2022-11-20T13:01:58;100182.38;;;-0.51;89.23
41945;BME280;63122;52.424;13.458;2022-11-20T13:04:50;100184.41;;;-0.56;89.80
41945;BME280;63122;52.424;13.458;2022-11-20T13:07:26;100175.16;;;-0.61;90.62
41945;BME280;63122;52.424;13.458;2022-11-20T13:09:58;100178.56;;;-0.60;91.72
41945;BME280;63122;52.424;13.458;2022-11-20T13:12:40;100174.41;;;-0.63;92.50
41945;BME280;63122;52.424;13.458;2022-11-20T13:15:21;100177.94;;;-0.64;92.69
41945;BME280;63122;52.424;13.458;2022-11-20T13:17:59;100166.66;;;-0.63;93.38
41945;BME280;63122;52.424;13.458;2022-11-20T13:20:31;100169.97;;;-0.61;94.31